sensor_id;sensor_type;location;lat;lon;timestamp;P1;durP1;ratioP1;P2;durP2;ratioP2
77400;SDS011;66855;45.414;11.082;2023-04-02T00:08:59;25.40;;;14.40;;
77400;SDS011;66855;45.414;11.082;2023-04-02T00:11:43;25.50;;;14.00;;
77400;SDS011;66855;45.414;11.082;2023-04-02T00:16:45;27.00;;;15.40;;
77400;SDS011;66855;45.414;11.082;2023-04-02T00:19:17;25.50;;;16.30;;
77400;SDS011;66855;45.414;11.082;2023-04-02T00:21:48;27.00;;;14.90;;
77400;SDS011;66855;45.414;11.082;2023-04-02T00:24:17;26.30;;;14.00;;
77400;SDS011;66855;45.414;11.082;2023-04-02T00:26:46;23.90;;;15.50;;
77400;SDS011;66855;45.414;11.082;2023-04-02T00:29:16;25.00;;;14.70;;
77400;SDS011;66855;45.414;11.082;2023-04-02T00:31:44;25.10;;;14.10;;
77400;SDS011;66855;45.414;11.082;2023-04-02T00:34:20;23.30;;;14.20;;
77400;SDS011;66855;45.414;11.082;2023-04-02T00:39:24;27.30;;;15.60;;
77400;SDS011;66855;45.414;11.082;2023-04-02T00:41:52;31.40;;;15.80;;
77400;SDS011;66855;45.414;11.082;2023-04-02T00:44:23;27.80;;;15.50;;
77400;SDS011;66855;45.414;11.082;2023-04-02T00:46:53;26.20;;;15.10;;
77400;SDS011;66855;45.414;11.082;2023-04-02T00:51:55;23.70;;;14.00;;
77400;SDS011;66855;45.414;11.082;2023-04-02T00:54:24;24.00;;;15.00;;
77400;SDS011;66855;45.414;11.082;2023-04-02T00:56:52;23.40;;;13.50;;
77400;SDS011;66855;45.414;11.082;2023-04-02T01:04:41;25.50;;;14.70;;
77400;SDS011;66855;45.414;11.082;2023-04-02T01:07:21;27.70;;;15.30;;
77400;SDS011;66855;45.414;11.082;2023-04-02T01:10:15;26.50;;;15.50;;
77400;SDS011;66855;45.414;11.082;2023-04-02T01:13:15;25.80;;;15.40;;
77400;SDS011;66855;45.414;11.082;2023-04-02T01:15:50;25.20;;;15.70;;
77400;SDS011;66855;45.414;11.082;2023-04-02T01:18:30;26.50;;;14.80;;
77400;SDS011;66855;45.414;11.082;2023-04-02T01:21:05;28.10;;;15.60;;
77400;SDS011;66855;45.414;11.082;2023-04-02T01:23:37;25.30;;;14.20;;
77400;SDS011;66855;45.414;11.082;2023-04-02T01:26:17;26.80;;;15.00;;
77400;SDS011;66855;45.414;11.082;2023-04-02T01:29:08;27.40;;;16.00;;
77400;SDS011;66855;45.414;11.082;2023-04-02T01:31:36;24.50;;;14.20;;
77400;SDS011;66855;45.414;11.082;2023-04-02T01:34:05;26.60;;;15.00;;
77400;SDS011;66855;45.414;11.082;2023-04-02T01:39:30;27.20;;;15.50;;
77400;SDS011;66855;45.414;11.082;2023-04-02T01:42:14;26.00;;;14.60;;
77400;SDS011;66855;45.414;11.082;2023-04-02T01:44:49;27.40;;;14.20;;
77400;SDS011;66855;45.414;11.082;2023-04-02T01:47:17;23.20;;;14.40;;
77400;SDS011;66855;45.414;11.082;2023-04-02T01:49:46;22.90;;;13.20;;
77400;SDS011;66855;45.414;11.082;2023-04-02T01:52:16;24.30;;;13.90;;
77400;SDS011;66855;45.414;11.082;2023-04-02T01:54:45;24.00;;;14.50;;
77400;SDS011;66855;45.414;11.082;2023-04-02T01:57:12;24.10;;;13.50;;
77400;SDS011;66855;45.414;11.082;2023-04-02T01:59:39;14.50;;;7.60;;
77400;SDS011;66855;45.414;11.082;2023-04-02T02:02:07;17.40;;;10.70;;
77400;SDS011;66855;45.414;11.082;2023-04-02T02:04:37;16.10;;;8.50;;
77400;SDS011;66855;45.414;11.082;2023-04-02T02:07:05;18.30;;;9.70;;
77400;SDS011;66855;45.414;11.082;2023-04-02T02:09:35;15.00;;;9.20;;
77400;SDS011;66855;45.414;11.082;2023-04-02T02:12:02;13.90;;;8.70;;
77400;SDS011;66855;45.414;11.082;2023-04-02T02:14:29;13.20;;;6.90;;
77400;SDS011;66855;45.414;11.082;2023-04-02T02:16:59;13.50;;;7.90;;
77400;SDS011;66855;45.414;11.082;2023-04-02T02:24:55;12.60;;;8.00;;
77400;SDS011;66855;45.414;11.082;2023-04-02T02:29:53;13.30;;;8.00;;
77400;SDS011;66855;45.414;11.082;2023-04-02T02:32:22;9.60;;;6.00;;
77400;SDS011;66855;45.414;11.082;2023-04-02T02:34:57;11.10;;;6.50;;
77400;SDS011;66855;45.414;11.082;2023-04-02T02:37:35;18.20;;;10.60;;
77400;SDS011;66855;45.414;11.082;2023-04-02T02:40:06;14.50;;;8.90;;
77400;SDS011;66855;45.414;11.082;2023-04-02T02:42:38;16.50;;;9.40;;
77400;SDS011;66855;45.414;11.082;2023-04-02T02:45:09;17.90;;;11.30;;
77400;SDS011;66855;45.414;11.082;2023-04-02T02:47:39;14.50;;;8.70;;
77400;SDS011;66855;45.414;11.082;2023-04-02T02:50:11;14.30;;;8.00;;
77400;SDS011;66855;45.414;11.082;2023-04-02T02:52:44;13.50;;;8.20;;
77400;SDS011;66855;45.414;11.082;2023-04-02T02:55:16;15.10;;;9.00;;
77400;SDS011;66855;45.414;11.082;2023-04-02T02:57:59;14.20;;;9.10;;
77400;SDS011;66855;45.414;11.082;2023-04-02T03:00:33;14.30;;;8.40;;
77400;SDS011;66855;45.414;11.082;2023-04-02T03:03:06;13.30;;;8.10;;
77400;SDS011;66855;45.414;11.082;2023-04-02T03:05:39;11.50;;;7.20;;
77400;SDS011;66855;45.414;11.082;2023-04-02T03:08:12;15.60;;;8.90;;
77400;SDS011;66855;45.414;11.082;2023-04-02T03:10:53;23.50;;;13.30;;
77400;SDS011;66855;45.414;11.082;2023-04-02T03:13:28;23.80;;;13.50;;
77400;SDS011;66855;45.414;11.082;2023-04-02T03:24:03;26.80;;;15.80;;
77400;SDS011;66855;45.414;11.082;2023-04-02T03:29:39;29.90;;;16.00;;
77400;SDS011;66855;45.414;11.082;2023-04-02T03:32:13;27.40;;;15.80;;
77400;SDS011;66855;45.414;11.082;2023-04-02T03:34:46;28.50;;;16.20;;
77400;SDS011;66855;45.414;11.082;2023-04-02T03:37:21;28.30;;;14.50;;
77400;SDS011;66855;45.414;11.082;2023-04-02T03:40:07;29.90;;;17.90;;
77400;SDS011;66855;45.414;11.082;2023-04-02T03:42:47;29.30;;;16.60;;
77400;SDS011;66855;45.414;11.082;2023-04-02T03:45:31;30.10;;;16.80;;
77400;SDS011;66855;45.414;11.082;2023-04-02T03:48:03;31.00;;;16.80;;
77400;SDS011;66855;45.414;11.082;2023-04-02T03:53:17;24.90;;;13.80;;
77400;SDS011;66855;45.414;11.082;2023-04-02T03:55:48;27.10;;;14.80;;
77400;SDS011;66855;45.414;11.082;2023-04-02T03:58:22;15.90;;;9.50;;
77400;SDS011;66855;45.414;11.082;2023-04-02T04:06:24;11.10;;;7.40;;
77400;SDS011;66855;45.414;11.082;2023-04-02T04:08:57;12.40;;;7.00;;
77400;SDS011;66855;45.414;11.082;2023-04-02T04:11:25;11.90;;;7.10;;
77400;SDS011;66855;45.414;11.082;2023-04-02T04:14:09;7.80;;;5.00;;
77400;SDS011;66855;45.414;11.082;2023-04-02T04:19:21;12.60;;;7.20;;
77400;SDS011;66855;45.414;11.082;2023-04-02T04:21:52;6.70;;;3.80;;
77400;SDS011;66855;45.414;11.082;2023-04-02T04:24:23;9.30;;;5.50;;
77400;SDS011;66855;45.414;11.082;2023-04-02T04:27:12;9.30;;;5.90;;
77400;SDS011;66855;45.414;11.082;2023-04-02T04:32:36;23.00;;;13.70;;
77400;SDS011;66855;45.414;11.082;2023-04-02T04:35:18;27.60;;;15.00;;
77400;SDS011;66855;45.414;11.082;2023-04-02T04:37:46;27.20;;;15.00;;
77400;SDS011;66855;45.414;11.082;2023-04-02T04:40:19;27.50;;;15.50;;
77400;SDS011;66855;45.414;11.082;2023-04-02T04:42:49;25.20;;;14.90;;
77400;SDS011;66855;45.414;11.082;2023-04-02T04:48:21;21.20;;;13.40;;
77400;SDS011;66855;45.414;11.082;2023-04-02T04:51:05;18.60;;;12.20;;
77400;SDS011;66855;45.414;11.082;2023-04-02T04:53:33;18.20;;;10.50;;
77400;SDS011;66855;45.414;11.082;2023-04-02T04:56:11;16.70;;;10.80;;
77400;SDS011;66855;45.414;11.082;2023-04-02T04:58:48;16.30;;;9.50;;
77400;SDS011;66855;45.414;11.082;2023-04-02T05:01:21;15.30;;;9.30;;
77400;SDS011;66855;45.414;11.082;2023-04-02T05:03:50;14.20;;;9.80;;
77400;SDS011;66855;45.414;11.082;2023-04-02T05:06:34;14.00;;;8.10;;
77400;SDS011;66855;45.414;11.082;2023-04-02T05:09:14;10.00;;;6.80;;
77400;SDS011;66855;45.414;11.082;2023-04-02T05:11:46;12.20;;;7.90;;
77400;SDS011;66855;45.414;11.082;2023-04-02T05:14:32;14.30;;;8.80;;
77400;SDS011;66855;45.414;11.082;2023-04-02T05:17:11;13.70;;;8.00;;
77400;SDS011;66855;45.414;11.082;2023-04-02T05:22:29;13.20;;;7.70;;
77400;SDS011;66855;45.414;11.082;2023-04-02T05:25:10;16.00;;;8.30;;
77400;SDS011;66855;45.414;11.082;2023-04-02T05:27:55;14.30;;;7.70;;
77400;SDS011;66855;45.414;11.082;2023-04-02T05:32:54;14.00;;;8.60;;
77400;SDS011;66855;45.414;11.082;2023-04-02T05:35:27;14.60;;;8.50;;
77400;SDS011;66855;45.414;11.082;2023-04-02T05:37:57;12.90;;;8.90;;
77400;SDS011;66855;45.414;11.082;2023-04-02T05:40:32;14.00;;;8.90;;
77400;SDS011;66855;45.414;11.082;2023-04-02T05:43:01;14.90;;;9.30;;
77400;SDS011;66855;45.414;11.082;2023-04-02T05:45:33;17.20;;;10.40;;
77400;SDS011;66855;45.414;11.082;2023-04-02T05:48:02;18.90;;;12.30;;
77400;SDS011;66855;45.414;11.082;2023-04-02T05:50:39;24.10;;;14.40;;
77400;SDS011;66855;45.414;11.082;2023-04-02T05:56:02;25.00;;;14.30;;
77400;SDS011;66855;45.414;11.082;2023-04-02T05:58:43;22.70;;;14.30;;
77400;SDS011;66855;45.414;11.082;2023-04-02T06:14:49;33.10;;;18.10;;
77400;SDS011;66855;45.414;11.082;2023-04-02T06:17:16;27.60;;;16.30;;
77400;SDS011;66855;45.414;11.082;2023-04-02T06:19:44;28.70;;;15.90;;
77400;SDS011;66855;45.414;11.082;2023-04-02T06:25:03;22.10;;;12.60;;
77400;SDS011;66855;45.414;11.082;2023-04-02T06:27:38;27.40;;;15.30;;
77400;SDS011;66855;45.414;11.082;2023-04-02T06:30:09;23.10;;;14.10;;
77400;SDS011;66855;45.414;11.082;2023-04-02T06:32:42;24.70;;;15.20;;
77400;SDS011;66855;45.414;11.082;2023-04-02T06:35:12;25.00;;;14.20;;
77400;SDS011;66855;45.414;11.082;2023-04-02T06:37:44;27.40;;;15.50;;
77400;SDS011;66855;45.414;11.082;2023-04-02T06:42:55;27.90;;;15.90;;
77400;SDS011;66855;45.414;11.082;2023-04-02T06:45:54;26.90;;;16.00;;
77400;SDS011;66855;45.414;11.082;2023-04-02T06:48:42;23.20;;;14.60;;
77400;SDS011;66855;45.414;11.082;2023-04-02T06:51:10;22.60;;;14.50;;
77400;SDS011;66855;45.414;11.082;2023-04-02T06:53:47;22.60;;;13.50;;
77400;SDS011;66855;45.414;11.082;2023-04-02T06:56:29;24.20;;;14.70;;
77400;SDS011;66855;45.414;11.082;2023-04-02T06:59:10;27.40;;;15.50;;
77400;SDS011;66855;45.414;11.082;2023-04-02T07:01:46;27.70;;;15.40;;
77400;SDS011;66855;45.414;11.082;2023-04-02T07:04:22;22.30;;;15.10;;
77400;SDS011;66855;45.414;11.082;2023-04-02T07:06:50;26.60;;;14.70;;
77400;SDS011;66855;45.414;11.082;2023-04-02T07:09:19;22.60;;;15.20;;
77400;SDS011;66855;45.414;11.082;2023-04-02T07:11:48;23.60;;;15.00;;
77400;SDS011;66855;45.414;11.082;2023-04-02T07:14:16;26.50;;;14.70;;
77400;SDS011;66855;45.414;11.082;2023-04-02T07:16:42;21.10;;;13.20;;
77400;SDS011;66855;45.414;11.082;2023-04-02T07:19:19;18.90;;;12.00;;
77400;SDS011;66855;45.414;11.082;2023-04-02T07:21:49;21.60;;;13.30;;
77400;SDS011;66855;45.414;11.082;2023-04-02T07:24:15;25.60;;;13.80;;
77400;SDS011;66855;45.414;11.082;2023-04-02T07:26:42;20.30;;;11.70;;
77400;SDS011;66855;45.414;11.082;2023-04-02T07:29:10;21.70;;;13.70;;
77400;SDS011;66855;45.414;11.082;2023-04-02T07:31:39;23.20;;;14.10;;
77400;SDS011;66855;45.414;11.082;2023-04-02T07:34:06;20.50;;;13.00;;
77400;SDS011;66855;45.414;11.082;2023-04-02T07:36:32;23.60;;;13.90;;
77400;SDS011;66855;45.414;11.082;2023-04-02T07:38:58;26.70;;;15.10;;
77400;SDS011;66855;45.414;11.082;2023-04-02T07:41:24;22.40;;;13.20;;
77400;SDS011;66855;45.414;11.082;2023-04-02T07:43:51;25.80;;;14.10;;
77400;SDS011;66855;45.414;11.082;2023-04-02T07:46:17;25.80;;;14.70;;
77400;SDS011;66855;45.414;11.082;2023-04-02T07:48:45;24.90;;;14.50;;
77400;SDS011;66855;45.414;11.082;2023-04-02T07:51:13;23.00;;;12.70;;
77400;SDS011;66855;45.414;11.082;2023-04-02T07:53:43;24.40;;;13.80;;
77400;SDS011;66855;45.414;11.082;2023-04-02T07:56:12;22.10;;;14.00;;
77400;SDS011;66855;45.414;11.082;2023-04-02T07:58:39;23.80;;;13.50;;
77400;SDS011;66855;45.414;11.082;2023-04-02T08:01:10;22.90;;;13.90;;
77400;SDS011;66855;45.414;11.082;2023-04-02T08:03:41;23.60;;;14.00;;
77400;SDS011;66855;45.414;11.082;2023-04-02T08:06:07;21.70;;;13.00;;
77400;SDS011;66855;45.414;11.082;2023-04-02T08:08:33;19.60;;;12.40;;
77400;SDS011;66855;45.414;11.082;2023-04-02T08:10:59;24.10;;;13.20;;
77400;SDS011;66855;45.414;11.082;2023-04-02T08:13:25;22.30;;;13.10;;
77400;SDS011;66855;45.414;11.082;2023-04-02T08:15:51;22.20;;;12.60;;
77400;SDS011;66855;45.414;11.082;2023-04-02T08:18:20;21.20;;;12.80;;
77400;SDS011;66855;45.414;11.082;2023-04-02T08:20:47;21.50;;;12.20;;
77400;SDS011;66855;45.414;11.082;2023-04-02T08:23:13;22.50;;;12.40;;
77400;SDS011;66855;45.414;11.082;2023-04-02T08:25:43;20.90;;;12.40;;
77400;SDS011;66855;45.414;11.082;2023-04-02T08:28:10;19.70;;;11.50;;
77400;SDS011;66855;45.414;11.082;2023-04-02T08:30:36;17.10;;;10.50;;
77400;SDS011;66855;45.414;11.082;2023-04-02T08:33:03;16.00;;;9.70;;
77400;SDS011;66855;45.414;11.082;2023-04-02T08:35:29;11.00;;;7.40;;
77400;SDS011;66855;45.414;11.082;2023-04-02T08:37:58;14.20;;;8.90;;
77400;SDS011;66855;45.414;11.082;2023-04-02T08:40:34;10.70;;;6.60;;
77400;SDS011;66855;45.414;11.082;2023-04-02T08:43:12;18.00;;;10.70;;
77400;SDS011;66855;45.414;11.082;2023-04-02T08:46:06;14.50;;;8.20;;
77400;SDS011;66855;45.414;11.082;2023-04-02T08:48:48;13.10;;;8.40;;
77400;SDS011;66855;45.414;11.082;2023-04-02T08:51:27;13.90;;;8.50;;
77400;SDS011;66855;45.414;11.082;2023-04-02T08:53:59;12.50;;;7.60;;
77400;SDS011;66855;45.414;11.082;2023-04-02T08:56:32;10.50;;;6.20;;
77400;SDS011;66855;45.414;11.082;2023-04-02T08:59:02;11.10;;;6.70;;
77400;SDS011;66855;45.414;11.082;2023-04-02T09:04:14;10.50;;;5.30;;
77400;SDS011;66855;45.414;11.082;2023-04-02T09:06:43;7.50;;;4.50;;
77400;SDS011;66855;45.414;11.082;2023-04-02T09:09:13;6.00;;;3.70;;
77400;SDS011;66855;45.414;11.082;2023-04-02T09:11:46;6.90;;;3.70;;
77400;SDS011;66855;45.414;11.082;2023-04-02T09:14:19;5.80;;;3.60;;
77400;SDS011;66855;45.414;11.082;2023-04-02T09:16:52;5.00;;;3.30;;
77400;SDS011;66855;45.414;11.082;2023-04-02T09:19:22;7.50;;;4.90;;
77400;SDS011;66855;45.414;11.082;2023-04-02T09:24:44;5.80;;;4.40;;
77400;SDS011;66855;45.414;11.082;2023-04-02T09:27:17;5.60;;;3.90;;
77400;SDS011;66855;45.414;11.082;2023-04-02T09:29:46;5.50;;;4.00;;
77400;SDS011;66855;45.414;11.082;2023-04-02T09:35:20;7.00;;;4.60;;
77400;SDS011;66855;45.414;11.082;2023-04-02T09:43:31;13.60;;;7.50;;
77400;SDS011;66855;45.414;11.082;2023-04-02T09:48:59;15.70;;;10.10;;
77400;SDS011;66855;45.414;11.082;2023-04-02T09:52:05;12.30;;;8.30;;
77400;SDS011;66855;45.414;11.082;2023-04-02T09:54:34;11.20;;;7.90;;
77400;SDS011;66855;45.414;11.082;2023-04-02T09:57:16;14.30;;;8.60;;
77400;SDS011;66855;45.414;11.082;2023-04-02T10:00:22;10.90;;;7.50;;
77400;SDS011;66855;45.414;11.082;2023-04-02T10:06:03;12.90;;;7.80;;
77400;SDS011;66855;45.414;11.082;2023-04-02T10:08:29;13.00;;;6.80;;
77400;SDS011;66855;45.414;11.082;2023-04-02T10:10:56;12.50;;;8.50;;
77400;SDS011;66855;45.414;11.082;2023-04-02T10:13:28;13.80;;;8.40;;
77400;SDS011;66855;45.414;11.082;2023-04-02T10:16:00;11.00;;;7.90;;
77400;SDS011;66855;45.414;11.082;2023-04-02T10:18:32;12.70;;;8.80;;
77400;SDS011;66855;45.414;11.082;2023-04-02T10:21:24;13.20;;;8.60;;
77400;SDS011;66855;45.414;11.082;2023-04-02T10:23:52;11.30;;;8.30;;
77400;SDS011;66855;45.414;11.082;2023-04-02T10:31:22;13.50;;;9.20;;
77400;SDS011;66855;45.414;11.082;2023-04-02T10:33:58;13.00;;;8.80;;
77400;SDS011;66855;45.414;11.082;2023-04-02T10:39:40;11.70;;;7.80;;
77400;SDS011;66855;45.414;11.082;2023-04-02T10:44:59;12.10;;;7.80;;
77400;SDS011;66855;45.414;11.082;2023-04-02T10:47:32;12.70;;;6.60;;
77400;SDS011;66855;45.414;11.082;2023-04-02T10:53:18;11.60;;;7.50;;
77400;SDS011;66855;45.414;11.082;2023-04-02T10:55:52;14.90;;;8.20;;
77400;SDS011;66855;45.414;11.082;2023-04-02T10:58:24;14.50;;;8.90;;
77400;SDS011;66855;45.414;11.082;2023-04-02T11:00:54;12.40;;;8.80;;
77400;SDS011;66855;45.414;11.082;2023-04-02T11:04:05;13.80;;;8.40;;
77400;SDS011;66855;45.414;11.082;2023-04-02T11:06:19;11.50;;;6.50;;
77400;SDS011;66855;45.414;11.082;2023-04-02T11:08:49;9.70;;;6.80;;
77400;SDS011;66855;45.414;11.082;2023-04-02T11:13:54;11.20;;;6.90;;
77400;SDS011;66855;45.414;11.082;2023-04-02T11:16:23;9.10;;;5.80;;
77400;SDS011;66855;45.414;11.082;2023-04-02T11:24:36;10.00;;;5.70;;
77400;SDS011;66855;45.414;11.082;2023-04-02T11:32:46;7.00;;;5.10;;
77400;SDS011;66855;45.414;11.082;2023-04-02T11:37:56;4.50;;;2.70;;
77400;SDS011;66855;45.414;11.082;2023-04-02T11:40:43;5.50;;;3.40;;
77400;SDS011;66855;45.414;11.082;2023-04-02T11:45:59;3.40;;;2.00;;
77400;SDS011;66855;45.414;11.082;2023-04-02T11:48:41;1.90;;;1.30;;
77400;SDS011;66855;45.414;11.082;2023-04-02T11:53:48;2.50;;;0.60;;
77400;SDS011;66855;45.414;11.082;2023-04-02T12:08:00;0.80;;;0.30;;
77400;SDS011;66855;45.414;11.082;2023-04-02T12:10:51;1.40;;;0.70;;
77400;SDS011;66855;45.414;11.082;2023-04-02T12:16:12;2.00;;;0.40;;
77400;SDS011;66855;45.414;11.082;2023-04-02T12:18:42;1.00;;;0.40;;
77400;SDS011;66855;45.414;11.082;2023-04-02T12:21:15;1.00;;;0.40;;
77400;SDS011;66855;45.414;11.082;2023-04-02T12:23:43;1.70;;;0.90;;
77400;SDS011;66855;45.414;11.082;2023-04-02T12:28:49;0.70;;;0.40;;
77400;SDS011;66855;45.414;11.082;2023-04-02T12:31:15;1.30;;;0.70;;
77400;SDS011;66855;45.414;11.082;2023-04-02T12:33:43;1.00;;;0.70;;
77400;SDS011;66855;45.414;11.082;2023-04-02T12:41:22;1.10;;;0.30;;
77400;SDS011;66855;45.414;11.082;2023-04-02T12:43:58;1.10;;;0.80;;
77400;SDS011;66855;45.414;11.082;2023-04-02T12:46:26;1.30;;;0.30;;
77400;SDS011;66855;45.414;11.082;2023-04-02T12:48:53;1.10;;;0.60;;
77400;SDS011;66855;45.414;11.082;2023-04-02T12:51:24;0.60;;;0.20;;
77400;SDS011;66855;45.414;11.082;2023-04-02T12:53:53;0.30;;;0.20;;
77400;SDS011;66855;45.414;11.082;2023-04-02T12:56:20;1.00;;;0.30;;
77400;SDS011;66855;45.414;11.082;2023-04-02T12:58:52;1.30;;;0.30;;
77400;SDS011;66855;45.414;11.082;2023-04-02T13:01:20;0.10;;;0.10;;
77400;SDS011;66855;45.414;11.082;2023-04-02T13:06:37;0.50;;;0.30;;
77400;SDS011;66855;45.414;11.082;2023-04-02T13:09:05;0.30;;;0.20;;
77400;SDS011;66855;45.414;11.082;2023-04-02T13:11:36;0.20;;;0.20;;
77400;SDS011;66855;45.414;11.082;2023-04-02T13:14:04;0.30;;;0.30;;
77400;SDS011;66855;45.414;11.082;2023-04-02T13:16:35;0.70;;;0.50;;
77400;SDS011;66855;45.414;11.082;2023-04-02T13:21:36;1.10;;;0.60;;
77400;SDS011;66855;45.414;11.082;2023-04-02T13:24:02;2.40;;;1.60;;
77400;SDS011;66855;45.414;11.082;2023-04-02T13:26:28;1.20;;;0.80;;
77400;SDS011;66855;45.414;11.082;2023-04-02T13:31:23;0.70;;;0.20;;
77400;SDS011;66855;45.414;11.082;2023-04-02T13:33:50;0.50;;;0.30;;
77400;SDS011;66855;45.414;11.082;2023-04-02T13:36:16;0.20;;;0.20;;
77400;SDS011;66855;45.414;11.082;2023-04-02T13:38:42;0.30;;;0.30;;
77400;SDS011;66855;45.414;11.082;2023-04-02T13:41:11;0.30;;;0.30;;
77400;SDS011;66855;45.414;11.082;2023-04-02T13:43:47;0.60;;;0.40;;
77400;SDS011;66855;45.414;11.082;2023-04-02T13:46:23;0.80;;;0.40;;
77400;SDS011;66855;45.414;11.082;2023-04-02T13:48:50;0.70;;;0.40;;
77400;SDS011;66855;45.414;11.082;2023-04-02T13:51:17;0.80;;;0.70;;
77400;SDS011;66855;45.414;11.082;2023-04-02T13:53:44;1.00;;;0.60;;
77400;SDS011;66855;45.414;11.082;2023-04-02T13:56:12;0.90;;;0.40;;
77400;SDS011;66855;45.414;11.082;2023-04-02T13:58:38;1.60;;;0.80;;
77400;SDS011;66855;45.414;11.082;2023-04-02T14:01:04;1.20;;;0.40;;
77400;SDS011;66855;45.414;11.082;2023-04-02T14:03:30;1.40;;;0.50;;
77400;SDS011;66855;45.414;11.082;2023-04-02T14:06:02;1.10;;;0.50;;
77400;SDS011;66855;45.414;11.082;2023-04-02T14:08:40;0.90;;;0.50;;
77400;SDS011;66855;45.414;11.082;2023-04-02T14:14:16;1.20;;;0.60;;
77400;SDS011;66855;45.414;11.082;2023-04-02T14:19:47;1.20;;;0.70;;
77400;SDS011;66855;45.414;11.082;2023-04-02T14:25:18;0.60;;;0.60;;
77400;SDS011;66855;45.414;11.082;2023-04-02T14:30:50;0.40;;;0.40;;
77400;SDS011;66855;45.414;11.082;2023-04-02T14:33:44;1.70;;;1.00;;
77400;SDS011;66855;45.414;11.082;2023-04-02T14:41:57;1.40;;;1.10;;
77400;SDS011;66855;45.414;11.082;2023-04-02T14:44:27;0.50;;;0.30;;
77400;SDS011;66855;45.414;11.082;2023-04-02T14:47:01;0.90;;;0.40;;
77400;SDS011;66855;45.414;11.082;2023-04-02T14:49:38;1.00;;;0.60;;
77400;SDS011;66855;45.414;11.082;2023-04-02T14:52:12;0.80;;;0.60;;
77400;SDS011;66855;45.414;11.082;2023-04-02T14:54:43;2.10;;;1.50;;
77400;SDS011;66855;45.414;11.082;2023-04-02T14:57:30;3.50;;;2.50;;
77400;SDS011;66855;45.414;11.082;2023-04-02T15:00:09;3.20;;;1.70;;
77400;SDS011;66855;45.414;11.082;2023-04-02T15:03:02;1.10;;;0.80;;
77400;SDS011;66855;45.414;11.082;2023-04-02T15:05:37;0.90;;;0.70;;
77400;SDS011;66855;45.414;11.082;2023-04-02T15:08:18;1.10;;;0.50;;
77400;SDS011;66855;45.414;11.082;2023-04-02T15:13:20;2.50;;;0.70;;
77400;SDS011;66855;45.414;11.082;2023-04-02T15:15:54;0.60;;;0.50;;
77400;SDS011;66855;45.414;11.082;2023-04-02T15:18:24;1.90;;;0.60;;
77400;SDS011;66855;45.414;11.082;2023-04-02T15:29:22;0.50;;;0.30;;
77400;SDS011;66855;45.414;11.082;2023-04-02T15:49:52;0.90;;;0.70;;
77400;SDS011;66855;45.414;11.082;2023-04-02T15:52:30;1.30;;;0.80;;
77400;SDS011;66855;45.414;11.082;2023-04-02T15:55:13;2.20;;;0.80;;
77400;SDS011;66855;45.414;11.082;2023-04-02T16:03:26;1.70;;;0.60;;
77400;SDS011;66855;45.414;11.082;2023-04-02T16:06:19;0.80;;;0.50;;
77400;SDS011;66855;45.414;11.082;2023-04-02T16:08:52;0.80;;;0.50;;
77400;SDS011;66855;45.414;11.082;2023-04-02T16:11:29;0.70;;;0.50;;
77400;SDS011;66855;45.414;11.082;2023-04-02T16:16:57;1.60;;;0.70;;
77400;SDS011;66855;45.414;11.082;2023-04-02T16:19:34;1.10;;;0.50;;
77400;SDS011;66855;45.414;11.082;2023-04-02T16:42:15;0.90;;;0.60;;
77400;SDS011;66855;45.414;11.082;2023-04-02T16:47:59;1.20;;;0.80;;
77400;SDS011;66855;45.414;11.082;2023-04-02T16:50:41;1.60;;;0.90;;
77400;SDS011;66855;45.414;11.082;2023-04-02T16:53:34;1.50;;;0.60;;
77400;SDS011;66855;45.414;11.082;2023-04-02T17:02:01;2.00;;;1.00;;
77400;SDS011;66855;45.414;11.082;2023-04-02T17:07:42;1.10;;;1.00;;
77400;SDS011;66855;45.414;11.082;2023-04-02T17:13:25;0.80;;;0.70;;
77400;SDS011;66855;45.414;11.082;2023-04-02T17:16:15;0.90;;;0.70;;
77400;SDS011;66855;45.414;11.082;2023-04-02T17:18:47;1.80;;;0.60;;
77400;SDS011;66855;45.414;11.082;2023-04-02T17:21:18;1.70;;;0.80;;
77400;SDS011;66855;45.414;11.082;2023-04-02T17:23:54;7.00;;;2.20;;
77400;SDS011;66855;45.414;11.082;2023-04-02T17:26:30;5.00;;;2.50;;
77400;SDS011;66855;45.414;11.082;2023-04-02T17:31:26;6.50;;;1.90;;
77400;SDS011;66855;45.414;11.082;2023-04-02T17:33:55;3.20;;;1.30;;
77400;SDS011;66855;45.414;11.082;2023-04-02T17:36:27;3.40;;;1.40;;
77400;SDS011;66855;45.414;11.082;2023-04-02T17:39:20;2.50;;;1.70;;
77400;SDS011;66855;45.414;11.082;2023-04-02T17:47:22;3.00;;;1.50;;
77400;SDS011;66855;45.414;11.082;2023-04-02T17:52:37;3.30;;;1.40;;
77400;SDS011;66855;45.414;11.082;2023-04-02T18:09:49;5.90;;;4.20;;
77400;SDS011;66855;45.414;11.082;2023-04-02T18:12:22;7.00;;;4.40;;
77400;SDS011;66855;45.414;11.082;2023-04-02T18:14:56;8.60;;;5.80;;
77400;SDS011;66855;45.414;11.082;2023-04-02T18:31:33;5.80;;;4.30;;
77400;SDS011;66855;45.414;11.082;2023-04-02T18:42:04;7.70;;;5.50;;
77400;SDS011;66855;45.414;11.082;2023-04-02T18:50:30;9.10;;;5.50;;
77400;SDS011;66855;45.414;11.082;2023-04-02T18:53:00;9.40;;;6.30;;
77400;SDS011;66855;45.414;11.082;2023-04-02T18:55:35;8.90;;;6.20;;
77400;SDS011;66855;45.414;11.082;2023-04-02T18:58:05;8.90;;;6.10;;
77400;SDS011;66855;45.414;11.082;2023-04-02T19:00:39;9.20;;;6.60;;
77400;SDS011;66855;45.414;11.082;2023-04-02T19:06:17;8.40;;;5.50;;
77400;SDS011;66855;45.414;11.082;2023-04-02T19:08:50;8.40;;;5.40;;
77400;SDS011;66855;45.414;11.082;2023-04-02T19:11:21;9.50;;;6.70;;
77400;SDS011;66855;45.414;11.082;2023-04-02T19:16:42;10.40;;;6.70;;
77400;SDS011;66855;45.414;11.082;2023-04-02T19:19:38;8.40;;;5.80;;
77400;SDS011;66855;45.414;11.082;2023-04-02T19:25:28;6.80;;;5.20;;
77400;SDS011;66855;45.414;11.082;2023-04-02T19:37:03;4.50;;;2.70;;
77400;SDS011;66855;45.414;11.082;2023-04-02T19:44:56;3.70;;;1.30;;
77400;SDS011;66855;45.414;11.082;2023-04-02T19:47:22;4.00;;;1.30;;
77400;SDS011;66855;45.414;11.082;2023-04-02T19:49:49;5.20;;;1.70;;
77400;SDS011;66855;45.414;11.082;2023-04-02T19:52:15;2.20;;;1.20;;
77400;SDS011;66855;45.414;11.082;2023-04-02T19:54:41;1.90;;;1.30;;
77400;SDS011;66855;45.414;11.082;2023-04-02T19:57:10;2.10;;;1.00;;
77400;SDS011;66855;45.414;11.082;2023-04-02T19:59:38;1.90;;;1.20;;
77400;SDS011;66855;45.414;11.082;2023-04-02T20:02:04;3.00;;;1.20;;
77400;SDS011;66855;45.414;11.082;2023-04-02T20:04:31;5.20;;;1.60;;
77400;SDS011;66855;45.414;11.082;2023-04-02T20:06:58;2.80;;;1.20;;
77400;SDS011;66855;45.414;11.082;2023-04-02T20:09:24;2.30;;;1.50;;
77400;SDS011;66855;45.414;11.082;2023-04-02T20:11:50;3.00;;;2.10;;
77400;SDS011;66855;45.414;11.082;2023-04-02T20:14:16;3.30;;;1.50;;
77400;SDS011;66855;45.414;11.082;2023-04-02T20:16:42;3.60;;;1.70;;
77400;SDS011;66855;45.414;11.082;2023-04-02T20:19:11;3.00;;;1.50;;
77400;SDS011;66855;45.414;11.082;2023-04-02T20:21:37;2.10;;;1.70;;
77400;SDS011;66855;45.414;11.082;2023-04-02T20:24:04;3.50;;;2.10;;
77400;SDS011;66855;45.414;11.082;2023-04-02T20:26:31;2.70;;;1.60;;
77400;SDS011;66855;45.414;11.082;2023-04-02T20:28:58;1.60;;;1.20;;
77400;SDS011;66855;45.414;11.082;2023-04-02T20:31:25;4.00;;;1.70;;
77400;SDS011;66855;45.414;11.082;2023-04-02T20:33:57;2.90;;;1.60;;
77400;SDS011;66855;45.414;11.082;2023-04-02T20:36:24;2.10;;;1.30;;